Hakuryoumaru No.15 — JD2439 — position and weather

sailwx.info

Track history (hours):
 
Tides and Currents Weather Stations Pressure Air Temp Water Temp Dewpoint Dewpoint Depression Visibility Wind Speed Wind Dir Waves Ship Positions

Hakuryoumaru No.15

Last reported at 2015-Jul-04 17:24 UTC. Time now 2015-Jul-05 02:43 UTC.
Position N 35°44' E 140°55'.

Length 80 m; draft 5.4 m.

Type: Tanker. MMSI: 431000243.

Date/timePositionNaut miles runAvg speedWind from/ knotsBaromVisibWave heightAir tempDewpointWater temp
2015-Jul-04 17:24N 35°44' E 140°55'1311.5
2015-Jul-04 16:19N 35°33' E 140°49'912.0
2015-Jul-04 15:33N 35°25' E 140°42'1212.1
2015-Jul-04 14:33N 35°16' E 140°33'1412.9
2015-Jul-04 13:29N 35°05' E 140°22'1314.3
2015-Jul-04 12:33N 34°59' E 140°08'1413.5
2015-Jul-04 11:29N 34°52' E 139°53'1111.4
2015-Jul-04 10:34N 34°60' E 139°44'1212.3
2015-Jul-04 09:34N 35°12' E 139°46'1111.2
2015-Jul-04 08:34N 35°22' E 139°42'1111.3
2015-Jul-04 07:33N 35°30' E 139°53'7 7.2
2015-Jul-04 06:34N 35°30' E 140°02'0 0.0
2015-Jul-04 05:33N 35°30' E 140°02'0 0.0
2015-Jul-04 04:34N 35°30' E 140°02'0 0.0
2015-Jul-04 03:33N 35°30' E 140°02'2 1.9
2015-Jul-04 02:34N 35°31' E 139°60'1 0.6
2015-Jul-04 01:32N 35°31' E 139°59'0 0.1
2015-Jul-04 00:20N 35°31' E 139°59'0 0.0
2015-Jul-03 22:32N 35°31' E 139°59'0 0.0
2015-Jul-03 21:26N 35°31' E 139°59'0 0.0
2015-Jul-03 20:32N 35°31' E 139°59'0 0.0
2015-Jul-03 19:32N 35°31' E 139°59'0 0.0
2015-Jul-03 18:20N 35°31' E 139°59'0 0.0
2015-Jul-03 17:32N 35°31' E 139°59'0 0.0
2015-Jul-03 16:17N 35°31' E 139°59'0 0.0
2015-Jul-03 15:20N 35°31' E 139°59'0 0.0
2015-Jul-03 14:32N 35°31' E 139°59'7 7.5
2015-Jul-03 13:33N 35°28' E 139°51'1211.8
2015-Jul-03 12:33N 35°17' E 139°45'1212.2
2015-Jul-03 11:33N 35°05' E 139°44'4 0.1
2015-Jul-02 02:33N 35°05' E 139°39'1111.2
2015-Jul-02 01:33N 35°15' E 139°46'7 7.0
2015-Jul-02 00:30N 35°20' E 139°40'0 0.0
2015-Jul-01 23:30N 35°20' E 139°40'0 0.0
2015-Jul-01 22:34N 35°20' E 139°40'0 0.0
2015-Jul-01 21:30N 35°20' E 139°40'0 0.0
2015-Jul-01 20:33N 35°20' E 139°40'0 0.0
2015-Jul-01 19:33N 35°20' E 139°40'0 0.0
2015-Jul-01 18:32N 35°20' E 139°40'0 0.0
2015-Jul-01 17:33N 35°20' E 139°40'0 0.0
2015-Jul-01 16:33N 35°20' E 139°40'0 0.0
2015-Jul-01 15:33N 35°20' E 139°40'0 0.0
2015-Jul-01 14:34N 35°20' E 139°40'0 0.0
2015-Jul-01 13:30N 35°20' E 139°40'0 0.0
2015-Jul-01 12:05N 35°20' E 139°40'0 0.1
2015-Jul-01 11:28N 35°20' E 139°40'0 0.0
2015-Jul-01 10:32N 35°20' E 139°40'0 0.0
2015-Jul-01 09:33N 35°20' E 139°40'0 0.1
2015-Jul-01 08:33N 35°20' E 139°40'0 0.0
2015-Jul-01 07:33N 35°20' E 139°40'0 0.0
2015-Jul-01 06:33N 35°20' E 139°40'0 0.1
2015-Jul-01 05:33N 35°21' E 139°40'0 0.4
2015-Jul-01 04:33N 35°21' E 139°40'4 0.9
2015-Jul-01 00:05N 35°24' E 139°38'0 0.0
2015-Jun-30 23:33N 35°24' E 139°38'2 2.1
2015-Jun-30 22:33N 35°23' E 139°40'6 6.4
2015-Jun-30 21:33N 35°17' E 139°41'0 0.0
2015-Jun-30 20:33N 35°17' E 139°41'0 0.0
2015-Jun-30 19:33N 35°17' E 139°41'0 0.0
2015-Jun-30 18:33N 35°17' E 139°41'0 0.0
2015-Jun-30 17:33N 35°17' E 139°41'0 0.0
2015-Jun-30 16:33N 35°17' E 139°41'0 0.0
2015-Jun-30 15:33N 35°17' E 139°41'0 0.0
2015-Jun-30 14:33N 35°17' E 139°41'0 0.0
2015-Jun-30 13:33N 35°17' E 139°41'0 0.0
2015-Jun-30 12:33N 35°17' E 139°41'0 0.0
2015-Jun-30 11:33N 35°17' E 139°41'0 0.0
2015-Jun-30 10:33N 35°17' E 139°41'3 2.7
2015-Jun-30 09:34N 35°20' E 139°41'1111.5
2015-Jun-30 08:34N 35°31' E 139°46'0 0.3
2015-Jun-30 07:33N 35°31' E 139°46'0 0.0
2015-Jun-30 06:33N 35°31' E 139°46'0 0.1
2015-Jun-30 05:33N 35°31' E 139°46'1 1.2
2015-Jun-30 04:33N 35°30' E 139°45'0 0.0
2015-Jun-30 03:33N 35°30' E 139°45'0 0.0
2015-Jun-30 02:33N 35°30' E 139°45'0 0.0
2015-Jun-30 01:33N 35°30' E 139°45'0 0.0
2015-Jun-30 00:33N 35°30' E 139°45'3 2.6
2015-Jun-29 23:34N 35°30' E 139°48'2 1.7
2015-Jun-29 22:33N 35°28' E 139°48'0 0.1
2015-Jun-29 21:33N 35°28' E 139°48'0 0.0
2015-Jun-29 20:33N 35°28' E 139°48'0 0.0
2015-Jun-29 19:33N 35°28' E 139°48'0 0.0
2015-Jun-29 18:33N 35°28' E 139°48'7 6.8
2015-Jun-29 17:33N 35°22' E 139°45'1312.6
2015-Jun-29 16:33N 35°09' E 139°47'1413.7
2015-Jun-29 15:33N 34°56' E 139°45'5512.2
2015-Jun-29 11:05N 35°26' E 140°40'3110.9
2015-Jun-29 08:14N 35°57' E 140°44'5 6.8
2015-Jun-29 07:32N 35°53' E 140°41'0 0.0
2015-Jun-29 06:32N 35°53' E 140°41'0 0.0
2015-Jun-29 05:27N 35°53' E 140°41'0 0.0
2015-Jun-29 04:33N 35°53' E 140°41'38 1.7
2015-Jun-28 05:27N 35°16' E 140°32'2111.4
2015-Jun-28 03:33N 35°01' E 140°13'1511.9
2015-Jun-28 02:19N 34°53' E 139°58'1010.2
2015-Jun-28 01:21N 34°54' E 139°46'911.6
2015-Jun-28 00:33N 35°03' E 139°44'1212.4
2015-Jun-27 23:33N 35°15' E 139°46'1110.6
2015-Jun-27 22:34N 35°26' E 139°45'8 8.0
2015-Jun-27 21:31N 35°28' E 139°55'0 0.0
2015-Jun-27 20:31N 35°28' E 139°55'0 0.0
2015-Jun-27 19:31N 35°28' E 139°55'0 0.0
2015-Jun-27 18:25N 35°28' E 139°55'0 0.0
2015-Jun-27 17:31N 35°28' E 139°55'0 0.0
2015-Jun-27 16:28N 35°28' E 139°55'0 0.0
2015-Jun-27 15:31N 35°28' E 139°55'0 0.0
2015-Jun-27 14:31N 35°28' E 139°55'0 0.0
2015-Jun-27 13:31N 35°28' E 139°55'0 0.0
2015-Jun-27 12:25N 35°28' E 139°55'0 0.0
2015-Jun-27 11:28N 35°28' E 139°55'0 0.1
2015-Jun-27 10:31N 35°28' E 139°55'0 0.0
2015-Jun-27 09:31N 35°28' E 139°55'0 0.0
2015-Jun-27 08:31N 35°28' E 139°55'5 5.4
2015-Jun-27 07:33N 35°30' E 140°01'1 0.7
2015-Jun-27 06:33N 35°30' E 140°02'0 0.0
2015-Jun-27 05:33N 35°30' E 140°02'0 0.0
2015-Jun-27 04:32N 35°30' E 140°02'1 1.4
2015-Jun-27 03:33N 35°30' E 140°00'2 2.1
2015-Jun-27 02:33N 35°30' E 139°58'1312.8
2015-Jun-27 01:33N 35°24' E 139°44'1 0.8
2015-Jun-27 00:32N 35°23' E 139°44'0 0.0
2015-Jun-26 23:32N 35°23' E 139°44'0 0.0
2015-Jun-26 22:32N 35°23' E 139°44'0 0.0
2015-Jun-26 21:29N 35°23' E 139°44'0 0.0
2015-Jun-26 20:32N 35°23' E 139°44'0 0.0
2015-Jun-26 19:32N 35°23' E 139°44'0 0.0
2015-Jun-26 18:32N 35°23' E 139°44'0 0.0
2015-Jun-26 17:29N 35°23' E 139°44'0 0.0
2015-Jun-26 16:32N 35°23' E 139°44'0 0.0
2015-Jun-26 15:32N 35°23' E 139°44'0 0.0
2015-Jun-26 14:32N 35°23' E 139°44'0 0.0
2015-Jun-26 13:32N 35°23' E 139°44'0 0.0
2015-Jun-26 12:32N 35°23' E 139°44'0 0.0
2015-Jun-26 11:32N 35°23' E 139°44'0 0.0
2015-Jun-26 10:32N 35°23' E 139°44'5 4.3
2015-Jun-26 09:30N 35°18' E 139°44'1112.1
2015-Jun-26 08:34N 35°07' E 139°45'  
Track history (hours):
 
Tides and Currents Weather Stations Pressure Air Temp Water Temp Dewpoint Dewpoint Depression Visibility Wind Speed Wind Dir Waves Ship Positions

Hakuryoumaru No.15

Last reported at 2015-Jul-04 17:24 UTC. Time now 2015-Jul-05 02:43 UTC.
Position N 35°44' E 140°55'.

Length 80 m; draft 5.4 m.

Type: Tanker. MMSI: 431000243.

Date/timePositionNaut miles runAvg speedWind from/ knotsBaromVisibWave heightAir tempDewpointWater temp
2015-Jul-04 17:24N 35°44' E 140°55'1311.5
2015-Jul-04 16:19N 35°33' E 140°49'912.0
2015-Jul-04 15:33N 35°25' E 140°42'1212.1
2015-Jul-04 14:33N 35°16' E 140°33'1412.9
2015-Jul-04 13:29N 35°05' E 140°22'1314.3
2015-Jul-04 12:33N 34°59' E 140°08'1413.5
2015-Jul-04 11:29N 34°52' E 139°53'1111.4
2015-Jul-04 10:34N 34°60' E 139°44'1212.3
2015-Jul-04 09:34N 35°12' E 139°46'1111.2
2015-Jul-04 08:34N 35°22' E 139°42'1111.3
2015-Jul-04 07:33N 35°30' E 139°53'7 7.2
2015-Jul-04 06:34N 35°30' E 140°02'0 0.0
2015-Jul-04 05:33N 35°30' E 140°02'0 0.0
2015-Jul-04 04:34N 35°30' E 140°02'0 0.0
2015-Jul-04 03:33N 35°30' E 140°02'2 1.9
2015-Jul-04 02:34N 35°31' E 139°60'1 0.6
2015-Jul-04 01:32N 35°31' E 139°59'0 0.1
2015-Jul-04 00:20N 35°31' E 139°59'0 0.0
2015-Jul-03 22:32N 35°31' E 139°59'0 0.0
2015-Jul-03 21:26N 35°31' E 139°59'0 0.0
2015-Jul-03 20:32N 35°31' E 139°59'0 0.0
2015-Jul-03 19:32N 35°31' E 139°59'0 0.0
2015-Jul-03 18:20N 35°31' E 139°59'0 0.0
2015-Jul-03 17:32N 35°31' E 139°59'0 0.0
2015-Jul-03 16:17N 35°31' E 139°59'0 0.0
2015-Jul-03 15:20N 35°31' E 139°59'0 0.0
2015-Jul-03 14:32N 35°31' E 139°59'7 7.5
2015-Jul-03 13:33N 35°28' E 139°51'1211.8
2015-Jul-03 12:33N 35°17' E 139°45'1212.2
2015-Jul-03 11:33N 35°05' E 139°44'4 0.1
2015-Jul-02 02:33N 35°05' E 139°39'1111.2
2015-Jul-02 01:33N 35°15' E 139°46'7 7.0
2015-Jul-02 00:30N 35°20' E 139°40'0 0.0
2015-Jul-01 23:30N 35°20' E 139°40'0 0.0
2015-Jul-01 22:34N 35°20' E 139°40'0 0.0
2015-Jul-01 21:30N 35°20' E 139°40'0 0.0
2015-Jul-01 20:33N 35°20' E 139°40'0 0.0
2015-Jul-01 19:33N 35°20' E 139°40'0 0.0
2015-Jul-01 18:32N 35°20' E 139°40'0 0.0
2015-Jul-01 17:33N 35°20' E 139°40'0 0.0
2015-Jul-01 16:33N 35°20' E 139°40'0 0.0
2015-Jul-01 15:33N 35°20' E 139°40'0 0.0
2015-Jul-01 14:34N 35°20' E 139°40'0 0.0
2015-Jul-01 13:30N 35°20' E 139°40'0 0.0
2015-Jul-01 12:05N 35°20' E 139°40'0 0.1
2015-Jul-01 11:28N 35°20' E 139°40'0 0.0
2015-Jul-01 10:32N 35°20' E 139°40'0 0.0
2015-Jul-01 09:33N 35°20' E 139°40'0 0.1
2015-Jul-01 08:33N 35°20' E 139°40'0 0.0
2015-Jul-01 07:33N 35°20' E 139°40'0 0.0
2015-Jul-01 06:33N 35°20' E 139°40'0 0.1
2015-Jul-01 05:33N 35°21' E 139°40'0 0.4
2015-Jul-01 04:33N 35°21' E 139°40'4 0.9
2015-Jul-01 00:05N 35°24' E 139°38'0 0.0
2015-Jun-30 23:33N 35°24' E 139°38'2 2.1
2015-Jun-30 22:33N 35°23' E 139°40'6 6.4
2015-Jun-30 21:33N 35°17' E 139°41'0 0.0
2015-Jun-30 20:33N 35°17' E 139°41'0 0.0
2015-Jun-30 19:33N 35°17' E 139°41'0 0.0
2015-Jun-30 18:33N 35°17' E 139°41'0 0.0
2015-Jun-30 17:33N 35°17' E 139°41'0 0.0
2015-Jun-30 16:33N 35°17' E 139°41'0 0.0
2015-Jun-30 15:33N 35°17' E 139°41'0 0.0
2015-Jun-30 14:33N 35°17' E 139°41'0 0.0
2015-Jun-30 13:33N 35°17' E 139°41'0 0.0
2015-Jun-30 12:33N 35°17' E 139°41'0 0.0
2015-Jun-30 11:33N 35°17' E 139°41'0 0.0
2015-Jun-30 10:33N 35°17' E 139°41'3 2.7
2015-Jun-30 09:34N 35°20' E 139°41'1111.5
2015-Jun-30 08:34N 35°31' E 139°46'0 0.3
2015-Jun-30 07:33N 35°31' E 139°46'0 0.0
2015-Jun-30 06:33N 35°31' E 139°46'0 0.1
2015-Jun-30 05:33N 35°31' E 139°46'1 1.2
2015-Jun-30 04:33N 35°30' E 139°45'0 0.0
2015-Jun-30 03:33N 35°30' E 139°45'0 0.0
2015-Jun-30 02:33N 35°30' E 139°45'0 0.0
2015-Jun-30 01:33N 35°30' E 139°45'0 0.0
2015-Jun-30 00:33N 35°30' E 139°45'3 2.6
2015-Jun-29 23:34N 35°30' E 139°48'2 1.7
2015-Jun-29 22:33N 35°28' E 139°48'0 0.1
2015-Jun-29 21:33N 35°28' E 139°48'0 0.0
2015-Jun-29 20:33N 35°28' E 139°48'0 0.0
2015-Jun-29 19:33N 35°28' E 139°48'0 0.0
2015-Jun-29 18:33N 35°28' E 139°48'7 6.8
2015-Jun-29 17:33N 35°22' E 139°45'1312.6
2015-Jun-29 16:33N 35°09' E 139°47'1413.7
2015-Jun-29 15:33N 34°56' E 139°45'5512.2
2015-Jun-29 11:05N 35°26' E 140°40'3110.9
2015-Jun-29 08:14N 35°57' E 140°44'5 6.8
2015-Jun-29 07:32N 35°53' E 140°41'0 0.0
2015-Jun-29 06:32N 35°53' E 140°41'0 0.0
2015-Jun-29 05:27N 35°53' E 140°41'0 0.0
2015-Jun-29 04:33N 35°53' E 140°41'38 1.7
2015-Jun-28 05:27N 35°16' E 140°32'2111.4
2015-Jun-28 03:33N 35°01' E 140°13'1511.9
2015-Jun-28 02:19N 34°53' E 139°58'1010.2
2015-Jun-28 01:21N 34°54' E 139°46'911.6
2015-Jun-28 00:33N 35°03' E 139°44'1212.4
2015-Jun-27 23:33N 35°15' E 139°46'1110.6
2015-Jun-27 22:34N 35°26' E 139°45'8 8.0
2015-Jun-27 21:31N 35°28' E 139°55'0 0.0
2015-Jun-27 20:31N 35°28' E 139°55'0 0.0
2015-Jun-27 19:31N 35°28' E 139°55'0 0.0
2015-Jun-27 18:25N 35°28' E 139°55'0 0.0
2015-Jun-27 17:31N 35°28' E 139°55'0 0.0
2015-Jun-27 16:28N 35°28' E 139°55'0 0.0
2015-Jun-27 15:31N 35°28' E 139°55'0 0.0
2015-Jun-27 14:31N 35°28' E 139°55'0 0.0
2015-Jun-27 13:31N 35°28' E 139°55'0 0.0
2015-Jun-27 12:25N 35°28' E 139°55'0 0.0
2015-Jun-27 11:28N 35°28' E 139°55'0 0.1
2015-Jun-27 10:31N 35°28' E 139°55'0 0.0
2015-Jun-27 09:31N 35°28' E 139°55'0 0.0
2015-Jun-27 08:31N 35°28' E 139°55'5 5.4
2015-Jun-27 07:33N 35°30' E 140°01'1 0.7
2015-Jun-27 06:33N 35°30' E 140°02'0 0.0
2015-Jun-27 05:33N 35°30' E 140°02'0 0.0
2015-Jun-27 04:32N 35°30' E 140°02'1 1.4
2015-Jun-27 03:33N 35°30' E 140°00'2 2.1
2015-Jun-27 02:33N 35°30' E 139°58'1312.8
2015-Jun-27 01:33N 35°24' E 139°44'1 0.8
2015-Jun-27 00:32N 35°23' E 139°44'0 0.0
2015-Jun-26 23:32N 35°23' E 139°44'0 0.0
2015-Jun-26 22:32N 35°23' E 139°44'0 0.0
2015-Jun-26 21:29N 35°23' E 139°44'0 0.0
2015-Jun-26 20:32N 35°23' E 139°44'0 0.0
2015-Jun-26 19:32N 35°23' E 139°44'0 0.0
2015-Jun-26 18:32N 35°23' E 139°44'0 0.0
2015-Jun-26 17:29N 35°23' E 139°44'0 0.0
2015-Jun-26 16:32N 35°23' E 139°44'0 0.0
2015-Jun-26 15:32N 35°23' E 139°44'0 0.0
2015-Jun-26 14:32N 35°23' E 139°44'0 0.0
2015-Jun-26 13:32N 35°23' E 139°44'0 0.0
2015-Jun-26 12:32N 35°23' E 139°44'0 0.0
2015-Jun-26 11:32N 35°23' E 139°44'0 0.0
2015-Jun-26 10:32N 35°23' E 139°44'5 4.3
2015-Jun-26 09:30N 35°18' E 139°44'1112.1
2015-Jun-26 08:34N 35°07' E 139°45'  

Dump ship's entire track history